createdAt,value
2023-01-21T00:01:26.074Z,1.65
2023-01-21T00:04:27.789Z,1.80
2023-01-21T00:07:29.329Z,1.80
2023-01-21T00:10:30.835Z,1.75
2023-01-21T00:13:35.589Z,1.92
2023-01-21T00:16:37.284Z,1.90
2023-01-21T00:19:38.784Z,1.65
2023-01-21T00:22:40.277Z,1.70
2023-01-21T00:25:41.793Z,1.70
2023-01-21T00:28:44.125Z,1.67
2023-01-21T00:31:45.816Z,2.10
2023-01-21T00:34:47.575Z,1.92
2023-01-21T00:37:51.625Z,2.08
2023-01-21T00:40:53.108Z,1.73
2023-01-21T00:43:54.592Z,1.80
2023-01-21T00:46:56.089Z,1.98
2023-01-21T00:49:57.574Z,1.90
2023-01-21T00:52:59.030Z,1.80
2023-01-21T00:56:01.949Z,1.92
2023-01-21T00:59:03.598Z,1.80
2023-01-21T01:02:05.236Z,1.90
2023-01-21T01:05:08.274Z,1.80
2023-01-21T01:08:09.754Z,1.90
2023-01-21T01:11:12.723Z,1.98
2023-01-21T01:14:14.181Z,1.90
2023-01-21T01:17:15.764Z,1.90
2023-01-21T01:20:17.644Z,1.90
2023-01-21T01:23:19.306Z,1.80
2023-01-21T01:26:22.195Z,1.90
2023-01-21T01:29:23.697Z,1.90
2023-01-21T01:32:25.161Z,1.80
2023-01-21T01:35:26.740Z,1.88
2023-01-21T01:38:28.297Z,1.83
2023-01-21T01:41:32.612Z,1.80
2023-01-21T01:44:56.136Z,1.85
2023-01-21T01:48:02.694Z,2.20
2023-01-21T01:54:11.149Z,1.85
2023-01-21T01:57:14.739Z,1.90
2023-01-21T02:00:16.948Z,1.90
2023-01-21T02:03:36.992Z,1.80
2023-01-21T02:06:39.630Z,1.85
2023-01-21T02:09:41.222Z,2.25
2023-01-21T02:12:43.743Z,2.10
2023-01-21T02:16:02.500Z,2.10
2023-01-21T02:19:25.602Z,2.00
2023-01-21T02:23:06.015Z,2.00
2023-01-21T02:26:36.695Z,1.90
2023-01-21T02:29:56.474Z,1.90
2023-01-21T02:33:28.873Z,2.05
2023-01-21T02:37:00.029Z,2.22
2023-01-21T02:40:17.027Z,2.00
2023-01-21T02:43:34.322Z,2.10
2023-01-21T02:46:46.970Z,1.80
2023-01-21T02:50:00.830Z,2.00
2023-01-21T02:53:04.728Z,2.20
2023-01-21T02:56:11.131Z,1.92
2023-01-21T02:59:12.977Z,2.00
2023-01-21T03:02:17.516Z,2.30
2023-01-21T03:05:23.370Z,2.10
2023-01-21T03:08:37.153Z,1.92
2023-01-21T03:11:44.019Z,1.92
2023-01-21T03:15:09.984Z,2.00
2023-01-21T03:18:11.392Z,2.03
2023-01-21T03:21:20.659Z,2.00
2023-01-21T03:24:22.984Z,2.00
2023-01-21T03:27:27.116Z,2.20
2023-01-21T03:30:29.892Z,2.00
2023-01-21T03:33:34.613Z,1.90
2023-01-21T03:36:43.118Z,2.22
2023-01-21T03:39:50.107Z,2.05
2023-01-21T03:42:53.529Z,1.95
2023-01-21T03:46:09.329Z,2.20
2023-01-21T03:49:52.310Z,1.90
2023-01-21T03:52:53.886Z,2.10
2023-01-21T03:55:55.364Z,1.83
2023-01-21T03:58:56.840Z,2.13
2023-01-21T04:01:58.440Z,1.88
2023-01-21T04:04:59.920Z,1.95
2023-01-21T04:08:02.088Z,2.00
2023-01-21T04:11:03.661Z,1.90
2023-01-21T04:14:05.196Z,1.77
2023-01-21T04:17:06.687Z,2.00
2023-01-21T04:20:08.990Z,1.83
2023-01-21T04:23:10.521Z,1.85
2023-01-21T04:26:12.046Z,1.85
2023-01-21T04:29:13.578Z,2.00
2023-01-21T04:32:15.555Z,2.10
2023-01-21T04:35:17.048Z,2.00
2023-01-21T04:38:18.600Z,2.00
2023-01-21T04:41:20.073Z,2.10
2023-01-21T04:44:21.541Z,2.00
2023-01-21T04:47:23.080Z,2.17
2023-01-21T04:50:24.605Z,1.80
2023-01-21T04:53:26.141Z,2.20
2023-01-21T04:56:27.630Z,1.83
2023-01-21T04:59:29.124Z,2.15
2023-01-21T05:02:31.059Z,1.90
2023-01-21T05:05:32.583Z,2.20
2023-01-21T05:08:34.074Z,1.90
2023-01-21T05:11:35.567Z,2.00
2023-01-21T05:14:37.155Z,1.90
2023-01-21T05:17:38.706Z,2.00
2023-01-21T05:20:40.174Z,1.83
2023-01-21T05:23:41.622Z,1.90
2023-01-21T05:26:43.320Z,2.03
2023-01-21T05:29:44.793Z,2.00
2023-01-21T05:32:50.679Z,1.98
2023-01-21T05:35:52.615Z,1.90
2023-01-21T05:38:54.241Z,1.80
2023-01-21T05:41:55.714Z,2.00
2023-01-21T05:44:57.178Z,2.10
2023-01-21T05:47:58.743Z,2.00
2023-01-21T05:51:00.363Z,1.90
2023-01-21T05:54:01.901Z,1.95
2023-01-21T05:57:03.502Z,1.90
2023-01-21T06:00:05.632Z,1.83
2023-01-21T06:03:07.381Z,1.85
2023-01-21T06:06:08.910Z,2.00
2023-01-21T06:09:10.513Z,1.92
2023-01-21T06:12:12.010Z,1.80
2023-01-21T06:15:13.940Z,1.80
2023-01-21T06:18:15.533Z,1.80
2023-01-21T06:21:17.024Z,1.90
2023-01-21T06:24:18.568Z,1.80
2023-01-21T06:27:20.049Z,1.90
2023-01-21T06:30:22.140Z,2.17
2023-01-21T06:33:23.705Z,1.90
2023-01-21T06:36:25.299Z,2.00
2023-01-21T06:39:26.808Z,1.85
2023-01-21T06:42:28.425Z,2.03
2023-01-21T06:45:30.022Z,1.90
2023-01-21T06:48:31.573Z,2.10
2023-01-21T06:51:33.050Z,1.85
2023-01-21T06:54:34.623Z,1.75
2023-01-21T06:57:37.334Z,1.90
2023-01-21T07:00:38.822Z,1.70
2023-01-21T07:03:40.302Z,2.00
2023-01-21T07:06:41.809Z,2.10
2023-01-21T07:09:43.298Z,1.60
2023-01-21T07:12:44.808Z,2.03
2023-01-21T07:15:46.321Z,1.90
2023-01-21T07:18:47.922Z,2.00
2023-01-21T07:21:49.430Z,1.90
2023-01-21T07:24:50.937Z,2.10
2023-01-21T07:27:52.423Z,1.98
2023-01-21T07:30:53.932Z,2.20
2023-01-21T07:33:55.445Z,2.30
2023-01-21T07:36:56.937Z,2.20
2023-01-21T07:39:58.462Z,2.70
2023-01-21T07:43:00.065Z,2.50
2023-01-21T07:46:01.689Z,2.63
2023-01-21T07:49:03.267Z,2.90
2023-01-21T07:52:04.756Z,3.00
2023-01-21T07:55:08.047Z,2.65
2023-01-21T07:58:10.689Z,3.10
2023-01-21T08:01:12.285Z,2.55
2023-01-21T08:04:14.111Z,2.80
2023-01-21T08:07:15.671Z,2.67
2023-01-21T08:10:18.784Z,2.40
2023-01-21T08:13:22.281Z,2.97
2023-01-21T08:16:24.189Z,2.40
2023-01-21T08:19:25.863Z,2.67
2023-01-21T08:22:27.374Z,2.60
2023-01-21T08:25:28.877Z,2.45
2023-01-21T08:28:30.425Z,2.50
2023-01-21T08:31:31.970Z,2.40
2023-01-21T08:34:33.641Z,2.50
2023-01-21T08:37:35.267Z,2.65
2023-01-21T08:40:36.799Z,2.33
2023-01-21T08:43:40.423Z,2.33
2023-01-21T08:46:41.955Z,2.22
2023-01-21T08:49:44.260Z,2.28
2023-01-21T08:52:53.838Z,2.53
2023-01-21T08:56:00.396Z,2.40
2023-01-21T09:02:04.856Z,2.20
2023-01-21T09:05:06.829Z,2.13
2023-01-21T09:08:08.302Z,2.28
2023-01-21T09:11:10.071Z,2.13
2023-01-21T09:14:11.953Z,2.40
2023-01-21T09:17:13.590Z,2.40
2023-01-21T09:20:15.113Z,2.38
2023-01-21T09:23:26.475Z,2.20
2023-01-21T09:26:28.106Z,1.98
2023-01-21T09:29:29.567Z,2.20
2023-01-21T09:32:31.041Z,2.35
2023-01-21T09:35:32.557Z,2.28
2023-01-21T09:38:34.945Z,1.98
2023-01-21T09:41:38.370Z,2.00
2023-01-21T09:44:44.866Z,2.17
2023-01-21T09:47:49.899Z,2.10
2023-01-21T09:50:52.444Z,2.20
2023-01-21T09:53:57.166Z,1.90
2023-01-21T09:57:35.855Z,2.10
2023-01-21T10:00:45.426Z,2.35
2023-01-21T10:03:59.223Z,2.05
2023-01-21T10:07:22.612Z,2.10
2023-01-21T10:10:33.378Z,2.00
2023-01-21T10:13:42.727Z,2.10
2023-01-21T10:17:11.590Z,2.05
2023-01-21T10:20:24.400Z,2.08
2023-01-21T10:23:42.711Z,1.90
2023-01-21T10:26:47.801Z,1.88
2023-01-21T10:29:54.256Z,1.92
2023-01-21T10:32:56.433Z,1.80
2023-01-21T10:36:30.507Z,1.77
2023-01-21T10:39:44.056Z,1.90
2023-01-21T10:42:54.618Z,1.98
2023-01-21T10:46:15.559Z,2.08
2023-01-21T10:49:28.080Z,1.70
2023-01-21T10:52:46.267Z,2.00
2023-01-21T10:55:59.903Z,1.83
2023-01-21T10:59:09.189Z,1.90
2023-01-21T11:02:33.013Z,1.90
2023-01-21T11:05:35.281Z,2.10
2023-01-21T11:08:38.162Z,1.85
2023-01-21T11:11:41.579Z,1.95
2023-01-21T11:14:56.813Z,1.80
2023-01-21T11:17:59.463Z,1.88
2023-01-21T11:21:08.318Z,2.00
2023-01-21T11:24:22.240Z,1.70
2023-01-21T11:27:37.575Z,1.70
2023-01-21T11:30:52.442Z,1.70
2023-01-21T11:33:55.610Z,2.03
2023-01-21T11:37:00.047Z,1.73
2023-01-21T11:40:12.990Z,1.90
2023-01-21T11:43:33.828Z,1.98
2023-01-21T11:46:38.408Z,1.98
2023-01-21T11:49:47.809Z,1.92
2023-01-21T11:53:12.889Z,1.90
2023-01-21T11:56:16.311Z,2.33
2023-01-21T11:59:25.050Z,1.98
2023-01-21T12:02:29.615Z,1.98
2023-01-21T12:05:43.052Z,1.88
2023-01-21T12:08:50.053Z,2.00
2023-01-21T12:12:26.444Z,1.92
2023-01-21T12:15:40.408Z,1.90
2023-01-21T12:18:44.735Z,1.90
2023-01-21T12:22:17.510Z,1.90
2023-01-21T12:25:38.255Z,2.00
2023-01-21T12:29:25.852Z,1.90
2023-01-21T12:32:51.016Z,1.90
2023-01-21T12:35:56.046Z,1.70
2023-01-21T12:39:13.926Z,1.70
2023-01-21T12:42:37.244Z,1.83
2023-01-21T12:45:49.073Z,2.03
2023-01-21T12:49:02.697Z,2.17
2023-01-21T12:52:15.671Z,1.80
2023-01-21T12:55:47.835Z,1.90
2023-01-21T12:58:56.478Z,1.90
2023-01-21T13:02:14.583Z,1.80
2023-01-21T13:05:54.506Z,2.00
2023-01-21T13:08:59.710Z,4.72
2023-01-21T13:12:20.112Z,7.50
2023-01-21T13:15:27.153Z,8.50
2023-01-21T13:18:37.883Z,9.20
2023-01-21T13:21:46.527Z,9.20
2023-01-21T13:25:13.930Z,9.25
2023-01-21T13:31:37.204Z,8.73
2023-01-21T13:35:06.668Z,7.90
2023-01-21T13:38:23.527Z,7.43
2023-01-21T13:41:57.449Z,6.32
2023-01-21T13:45:13.896Z,5.78
2023-01-21T13:48:36.125Z,5.53
2023-01-21T13:51:54.802Z,5.20
2023-01-21T13:55:14.505Z,4.90
2023-01-21T13:58:24.857Z,4.15
2023-01-21T14:01:29.698Z,4.20
2023-01-21T14:04:43.864Z,4.07
2023-01-21T14:07:57.327Z,3.83
2023-01-21T14:11:10.841Z,3.80
2023-01-21T14:14:46.709Z,3.72
2023-01-21T14:17:54.070Z,3.00
2023-01-21T14:21:15.398Z,3.47
2023-01-21T14:24:41.605Z,3.40
2023-01-21T14:28:11.064Z,3.22
2023-01-21T14:31:18.812Z,3.10
2023-01-21T14:34:30.165Z,3.00
2023-01-21T14:37:46.085Z,3.20
2023-01-21T14:41:02.376Z,2.70
2023-01-21T14:44:03.992Z,2.85
2023-01-21T14:47:22.898Z,2.58
2023-01-21T14:50:50.956Z,2.70
2023-01-21T14:53:59.997Z,2.50
2023-01-21T14:57:18.182Z,2.50
2023-01-21T15:00:32.284Z,2.42
2023-01-21T15:03:43.559Z,2.30
2023-01-21T15:06:45.180Z,2.38
2023-01-21T15:09:55.554Z,2.33
2023-01-21T15:12:59.803Z,2.33
2023-01-21T15:16:31.826Z,2.05
2023-01-21T15:19:34.857Z,2.22
2023-01-21T15:22:41.207Z,2.05
2023-01-21T15:26:02.450Z,2.40
2023-01-21T15:29:33.396Z,2.30
2023-01-21T15:32:49.418Z,2.20
2023-01-21T15:35:53.993Z,1.93
2023-01-21T15:39:01.975Z,2.03
2023-01-21T15:42:27.815Z,2.08
2023-01-21T15:45:47.425Z,2.17
2023-01-21T15:49:21.555Z,2.15
2023-01-21T15:52:46.197Z,2.22
2023-01-21T15:56:18.566Z,1.80
2023-01-21T15:59:35.279Z,1.92
2023-01-21T16:02:52.233Z,2.20
2023-01-21T16:06:12.281Z,2.10
2023-01-21T16:09:30.328Z,2.10
2023-01-21T16:12:32.146Z,2.30
2023-01-21T16:15:46.767Z,2.10
2023-01-21T16:19:00.337Z,2.10
2023-01-21T16:22:07.736Z,1.90
2023-01-21T16:25:15.063Z,2.30
2023-01-21T16:28:17.160Z,2.20
2023-01-21T16:31:19.076Z,2.08
2023-01-21T16:34:41.116Z,2.20
2023-01-21T16:37:44.350Z,2.05
2023-01-21T16:40:49.056Z,2.00
2023-01-21T16:43:58.547Z,2.30
2023-01-21T16:47:01.094Z,2.10
2023-01-21T16:50:05.513Z,1.83
2023-01-21T16:53:08.498Z,2.40
2023-01-21T16:56:28.306Z,1.95
2023-01-21T16:59:39.659Z,1.90
2023-01-21T17:02:41.437Z,2.05
2023-01-21T17:05:42.959Z,2.10
2023-01-21T17:08:51.785Z,2.10
2023-01-21T17:11:55.145Z,1.90
2023-01-21T17:15:02.721Z,2.15
2023-01-21T17:18:08.573Z,1.85
2023-01-21T17:21:16.579Z,1.88
2023-01-21T17:24:22.731Z,1.77
2023-01-21T17:27:26.215Z,2.00
2023-01-21T17:30:33.195Z,2.00
2023-01-21T17:33:34.712Z,1.98
2023-01-21T17:36:39.052Z,2.00
2023-01-21T17:39:46.575Z,1.98
2023-01-21T17:42:48.164Z,1.98
2023-01-21T17:45:52.767Z,1.90
2023-01-21T17:49:06.128Z,2.05
2023-01-21T17:52:20.035Z,2.40
2023-01-21T17:55:24.677Z,2.00
2023-01-21T17:58:31.941Z,1.90
2023-01-21T18:01:33.460Z,1.73
2023-01-21T18:04:35.296Z,2.00
2023-01-21T18:07:37.811Z,1.85
2023-01-21T18:10:39.515Z,2.10
2023-01-21T18:13:41.030Z,1.75
2023-01-21T18:16:42.670Z,2.00
2023-01-21T18:19:44.200Z,1.90
2023-01-21T18:22:46.485Z,2.00
2023-01-21T18:25:52.389Z,1.90
2023-01-21T18:28:54.137Z,1.80
2023-01-21T18:31:56.150Z,1.88
2023-01-21T18:34:59.715Z,2.00
2023-01-21T18:38:01.320Z,1.80
2023-01-21T18:41:02.815Z,1.88
2023-01-21T18:44:04.538Z,1.90
2023-01-21T18:47:14.012Z,2.05
2023-01-21T18:50:18.695Z,1.90
2023-01-21T18:53:20.161Z,1.83
2023-01-21T18:56:21.746Z,2.00
2023-01-21T18:59:23.365Z,1.67
2023-01-21T19:02:24.892Z,1.85
2023-01-21T19:05:36.449Z,1.70
2023-01-21T19:08:37.952Z,1.90
2023-01-21T19:11:39.393Z,1.63
2023-01-21T19:14:40.873Z,1.70
2023-01-21T19:17:42.835Z,1.60
2023-01-21T19:20:44.472Z,1.70
2023-01-21T19:23:45.945Z,1.77
2023-01-21T19:26:47.513Z,1.80
2023-01-21T19:29:48.984Z,1.50
2023-01-21T19:32:52.292Z,1.50
2023-01-21T19:36:10.998Z,1.63
2023-01-21T19:39:25.321Z,1.90
2023-01-21T19:42:26.779Z,1.65
2023-01-21T19:45:29.084Z,1.70
2023-01-21T19:48:30.667Z,1.80
2023-01-21T19:51:32.827Z,1.80
2023-01-21T19:54:34.360Z,1.60
2023-01-21T19:57:36.705Z,1.73
2023-01-21T20:00:38.201Z,1.90
2023-01-21T20:03:48.062Z,2.40
2023-01-21T20:06:56.368Z,2.60
2023-01-21T20:09:57.877Z,4.80
2023-01-21T20:12:59.348Z,6.82
2023-01-21T20:16:10.974Z,9.65
2023-01-21T20:19:17.742Z,13.40
2023-01-21T20:22:19.490Z,16.73
2023-01-21T20:25:28.190Z,20.48
2023-01-21T20:28:46.804Z,24.38
2023-01-21T20:31:48.334Z,26.08
2023-01-21T20:34:49.789Z,28.20
2023-01-21T20:37:53.636Z,29.95
2023-01-21T20:40:55.126Z,29.95
2023-01-21T20:43:57.256Z,30.13
2023-01-21T20:47:00.889Z,29.63
2023-01-21T20:50:02.407Z,29.17
2023-01-21T20:53:04.602Z,28.35
2023-01-21T20:56:19.417Z,28.00
2023-01-21T20:59:21.723Z,26.70
2023-01-21T21:02:23.210Z,25.50
2023-01-21T21:05:27.571Z,24.88
2023-01-21T21:08:29.252Z,25.00
2023-01-21T21:11:30.727Z,23.10
2023-01-21T21:14:32.244Z,23.58
2023-01-21T21:17:33.715Z,21.88
2023-01-21T21:20:38.751Z,21.17
2023-01-21T21:23:40.270Z,21.30
2023-01-21T21:26:43.547Z,20.63
2023-01-21T21:29:45.297Z,20.02
2023-01-21T21:32:46.760Z,18.88
2023-01-21T21:35:49.667Z,18.85
2023-01-21T21:38:52.488Z,18.10
2023-01-21T21:42:15.034Z,17.20
2023-01-21T21:45:18.089Z,17.40
2023-01-21T21:48:39.413Z,16.13
2023-01-21T21:51:41.047Z,16.80
2023-01-21T21:54:42.808Z,15.32
2023-01-21T21:57:44.357Z,14.98
2023-01-21T22:00:46.018Z,14.80
2023-01-21T22:03:48.189Z,14.02
2023-01-21T22:06:49.775Z,14.43
2023-01-21T22:09:51.263Z,13.18
2023-01-21T22:12:53.140Z,13.00
2023-01-21T22:15:59.173Z,12.48
2023-01-21T22:19:01.516Z,12.10
2023-01-21T22:22:03.048Z,12.02
2023-01-21T22:25:05.502Z,11.52
2023-01-21T22:28:06.977Z,11.45
2023-01-21T22:31:20.465Z,11.25
2023-01-21T22:34:22.092Z,10.93
2023-01-21T22:37:23.674Z,10.75
2023-01-21T22:40:25.390Z,9.85
2023-01-21T22:43:27.175Z,10.40
2023-01-21T22:46:33.711Z,9.75
2023-01-21T22:52:36.606Z,9.50
2023-01-21T22:55:38.289Z,9.88
2023-01-21T22:58:39.835Z,9.70
2023-01-21T23:01:41.766Z,8.80
2023-01-21T23:04:43.498Z,8.13
2023-01-21T23:07:44.977Z,8.18
2023-01-21T23:10:47.149Z,7.90
2023-01-21T23:13:49.586Z,7.93
2023-01-21T23:16:52.690Z,7.22
2023-01-21T23:19:54.176Z,7.40
2023-01-21T23:22:59.069Z,7.40
2023-01-21T23:26:02.062Z,7.00
2023-01-21T23:29:03.792Z,6.70
2023-01-21T23:32:05.663Z,6.80
2023-01-21T23:35:08.654Z,6.60
2023-01-21T23:38:10.211Z,6.55
2023-01-21T23:41:16.681Z,6.47
2023-01-21T23:47:19.613Z,6.10
2023-01-21T23:50:21.429Z,5.80
2023-01-21T23:53:22.946Z,5.68
2023-01-21T23:56:25.832Z,5.53
2023-01-21T23:59:27.323Z,5.32
